sensor_id;sensor_type;location;lat;lon;timestamp;temperature;humidity
26262;DHT22;13988;52.446;13.280;2024-03-08T00:02:16;1.70;99.90
26262;DHT22;13988;52.446;13.280;2024-03-08T00:04:42;1.50;99.90
26262;DHT22;13988;52.446;13.280;2024-03-08T00:07:07;1.50;99.90
26262;DHT22;13988;52.446;13.280;2024-03-08T00:09:33;1.50;99.90
26262;DHT22;13988;52.446;13.280;2024-03-08T00:11:59;1.40;99.90
26262;DHT22;13988;52.446;13.280;2024-03-08T00:14:24;1.40;99.90
26262;DHT22;13988;52.446;13.280;2024-03-08T00:16:50;1.30;99.90
26262;DHT22;13988;52.446;13.280;2024-03-08T00:19:18;1.30;99.90
26262;DHT22;13988;52.446;13.280;2024-03-08T00:21:43;1.30;99.90
26262;DHT22;13988;52.446;13.280;2024-03-08T00:24:10;1.30;99.90
26262;DHT22;13988;52.446;13.280;2024-03-08T00:26:36;1.40;99.90
26262;DHT22;13988;52.446;13.280;2024-03-08T00:29:01;1.50;99.90
26262;DHT22;13988;52.446;13.280;2024-03-08T00:31:28;1.40;99.90
26262;DHT22;13988;52.446;13.280;2024-03-08T00:33:56;1.30;99.90
26262;DHT22;13988;52.446;13.280;2024-03-08T00:36:22;1.20;99.90
26262;DHT22;13988;52.446;13.280;2024-03-08T00:38:48;1.20;99.90
26262;DHT22;13988;52.446;13.280;2024-03-08T00:41:13;1.20;99.90
26262;DHT22;13988;52.446;13.280;2024-03-08T00:43:39;1.30;99.90
26262;DHT22;13988;52.446;13.280;2024-03-08T00:46:05;1.20;99.90
26262;DHT22;13988;52.446;13.280;2024-03-08T00:48:30;1.30;99.90
26262;DHT22;13988;52.446;13.280;2024-03-08T00:50:56;1.30;99.90
26262;DHT22;13988;52.446;13.280;2024-03-08T00:53:22;1.20;99.90
26262;DHT22;13988;52.446;13.280;2024-03-08T00:55:48;1.20;99.90
26262;DHT22;13988;52.446;13.280;2024-03-08T00:58:14;1.20;99.90
26262;DHT22;13988;52.446;13.280;2024-03-08T01:00:40;1.20;99.90
26262;DHT22;13988;52.446;13.280;2024-03-08T01:03:05;1.20;99.90
26262;DHT22;13988;52.446;13.280;2024-03-08T01:05:32;1.10;99.90
26262;DHT22;13988;52.446;13.280;2024-03-08T01:07:58;1.10;99.90
26262;DHT22;13988;52.446;13.280;2024-03-08T01:10:23;1.10;99.90
26262;DHT22;13988;52.446;13.280;2024-03-08T01:12:49;1.00;99.90
26262;DHT22;13988;52.446;13.280;2024-03-08T01:15:15;1.10;99.90
26262;DHT22;13988;52.446;13.280;2024-03-08T01:17:41;1.00;99.90
26262;DHT22;13988;52.446;13.280;2024-03-08T01:20:07;1.00;99.90
26262;DHT22;13988;52.446;13.280;2024-03-08T01:22:36;1.00;99.90
26262;DHT22;13988;52.446;13.280;2024-03-08T01:25:01;0.90;99.90
26262;DHT22;13988;52.446;13.280;2024-03-08T01:27:30;0.90;99.90
26262;DHT22;13988;52.446;13.280;2024-03-08T01:29:56;0.90;99.90
26262;DHT22;13988;52.446;13.280;2024-03-08T01:32:22;0.90;99.90
26262;DHT22;13988;52.446;13.280;2024-03-08T01:34:49;0.90;99.90
26262;DHT22;13988;52.446;13.280;2024-03-08T01:37:14;1.10;99.90
26262;DHT22;13988;52.446;13.280;2024-03-08T01:39:40;1.20;99.90
26262;DHT22;13988;52.446;13.280;2024-03-08T01:42:06;1.10;99.90
26262;DHT22;13988;52.446;13.280;2024-03-08T01:44:31;1.10;99.90
26262;DHT22;13988;52.446;13.280;2024-03-08T01:46:57;1.10;99.90
26262;DHT22;13988;52.446;13.280;2024-03-08T01:49:24;1.10;99.90
26262;DHT22;13988;52.446;13.280;2024-03-08T01:51:51;1.10;99.90
26262;DHT22;13988;52.446;13.280;2024-03-08T01:54:19;1.10;99.90
26262;DHT22;13988;52.446;13.280;2024-03-08T01:56:46;1.00;99.90
26262;DHT22;13988;52.446;13.280;2024-03-08T01:59:12;1.00;99.90
26262;DHT22;13988;52.446;13.280;2024-03-08T02:01:40;1.00;99.90
26262;DHT22;13988;52.446;13.280;2024-03-08T02:04:05;1.00;99.90
26262;DHT22;13988;52.446;13.280;2024-03-08T02:06:33;1.00;99.90
26262;DHT22;13988;52.446;13.280;2024-03-08T02:08:58;0.90;99.90
26262;DHT22;13988;52.446;13.280;2024-03-08T02:11:24;0.90;99.90
26262;DHT22;13988;52.446;13.280;2024-03-08T02:13:50;0.80;99.90
26262;DHT22;13988;52.446;13.280;2024-03-08T02:16:22;0.90;99.90
26262;DHT22;13988;52.446;13.280;2024-03-08T02:18:48;0.90;99.90
26262;DHT22;13988;52.446;13.280;2024-03-08T02:21:17;0.80;99.90
26262;DHT22;13988;52.446;13.280;2024-03-08T02:23:46;0.80;99.90
26262;DHT22;13988;52.446;13.280;2024-03-08T02:26:12;0.80;99.90
26262;DHT22;13988;52.446;13.280;2024-03-08T02:28:38;0.80;99.90
26262;DHT22;13988;52.446;13.280;2024-03-08T02:31:04;0.90;99.90
26262;DHT22;13988;52.446;13.280;2024-03-08T02:33:34;0.80;99.90
26262;DHT22;13988;52.446;13.280;2024-03-08T02:35:59;0.90;99.90
26262;DHT22;13988;52.446;13.280;2024-03-08T02:38:25;0.90;99.90
26262;DHT22;13988;52.446;13.280;2024-03-08T02:40:53;0.80;99.90
26262;DHT22;13988;52.446;13.280;2024-03-08T02:43:20;0.80;99.90
26262;DHT22;13988;52.446;13.280;2024-03-08T02:45:47;0.80;99.90
26262;DHT22;13988;52.446;13.280;2024-03-08T02:48:14;0.80;99.90
26262;DHT22;13988;52.446;13.280;2024-03-08T02:50:40;0.80;99.90
26262;DHT22;13988;52.446;13.280;2024-03-08T02:53:08;0.80;99.90
26262;DHT22;13988;52.446;13.280;2024-03-08T02:55:33;0.80;99.90
26262;DHT22;13988;52.446;13.280;2024-03-08T02:58:01;0.80;99.90
26262;DHT22;13988;52.446;13.280;2024-03-08T03:00:28;0.70;99.90
26262;DHT22;13988;52.446;13.280;2024-03-08T03:02:58;0.70;99.90
26262;DHT22;13988;52.446;13.280;2024-03-08T03:05:24;0.70;99.90
26262;DHT22;13988;52.446;13.280;2024-03-08T03:07:51;0.80;99.90
26262;DHT22;13988;52.446;13.280;2024-03-08T03:10:17;0.80;99.90
26262;DHT22;13988;52.446;13.280;2024-03-08T03:12:44;0.80;99.90
26262;DHT22;13988;52.446;13.280;2024-03-08T03:15:12;0.80;99.90
26262;DHT22;13988;52.446;13.280;2024-03-08T03:17:45;0.90;99.90
26262;DHT22;13988;52.446;13.280;2024-03-08T03:20:11;0.90;99.90
26262;DHT22;13988;52.446;13.280;2024-03-08T03:22:40;0.80;99.90
26262;DHT22;13988;52.446;13.280;2024-03-08T03:25:10;0.80;99.90
26262;DHT22;13988;52.446;13.280;2024-03-08T03:27:36;0.90;99.90
26262;DHT22;13988;52.446;13.280;2024-03-08T03:30:03;0.80;99.90
26262;DHT22;13988;52.446;13.280;2024-03-08T03:32:47;0.80;99.90
26262;DHT22;13988;52.446;13.280;2024-03-08T03:35:13;0.80;99.90
26262;DHT22;13988;52.446;13.280;2024-03-08T03:37:40;0.90;99.90
26262;DHT22;13988;52.446;13.280;2024-03-08T03:40:08;0.90;99.90
26262;DHT22;13988;52.446;13.280;2024-03-08T03:42:34;0.90;99.90
26262;DHT22;13988;52.446;13.280;2024-03-08T03:45:00;0.80;99.90
26262;DHT22;13988;52.446;13.280;2024-03-08T03:47:25;0.80;99.90
26262;DHT22;13988;52.446;13.280;2024-03-08T03:49:52;0.80;99.90
26262;DHT22;13988;52.446;13.280;2024-03-08T03:52:19;0.80;99.90
26262;DHT22;13988;52.446;13.280;2024-03-08T03:54:45;0.80;99.90
26262;DHT22;13988;52.446;13.280;2024-03-08T03:57:11;0.80;99.90
26262;DHT22;13988;52.446;13.280;2024-03-08T03:59:37;0.80;99.90
26262;DHT22;13988;52.446;13.280;2024-03-08T04:02:03;0.80;99.90
26262;DHT22;13988;52.446;13.280;2024-03-08T04:04:29;0.80;99.90
26262;DHT22;13988;52.446;13.280;2024-03-08T04:06:55;0.80;99.90
26262;DHT22;13988;52.446;13.280;2024-03-08T04:09:20;0.80;99.90
26262;DHT22;13988;52.446;13.280;2024-03-08T04:11:48;0.80;99.90
26262;DHT22;13988;52.446;13.280;2024-03-08T04:14:13;0.70;99.90
26262;DHT22;13988;52.446;13.280;2024-03-08T04:16:39;0.70;99.90
26262;DHT22;13988;52.446;13.280;2024-03-08T04:19:05;0.60;99.90
26262;DHT22;13988;52.446;13.280;2024-03-08T04:21:30;0.50;99.90
26262;DHT22;13988;52.446;13.280;2024-03-08T04:23:56;0.50;99.90
26262;DHT22;13988;52.446;13.280;2024-03-08T04:26:22;0.50;99.90
26262;DHT22;13988;52.446;13.280;2024-03-08T04:28:48;0.50;99.90
26262;DHT22;13988;52.446;13.280;2024-03-08T04:31:13;0.50;99.90
26262;DHT22;13988;52.446;13.280;2024-03-08T04:33:39;0.40;99.90
26262;DHT22;13988;52.446;13.280;2024-03-08T04:36:05;0.40;99.90
26262;DHT22;13988;52.446;13.280;2024-03-08T04:38:31;0.30;99.90
26262;DHT22;13988;52.446;13.280;2024-03-08T04:40:57;0.50;99.90
26262;DHT22;13988;52.446;13.280;2024-03-08T04:43:23;0.40;99.90
26262;DHT22;13988;52.446;13.280;2024-03-08T04:45:52;0.30;99.90
26262;DHT22;13988;52.446;13.280;2024-03-08T04:48:19;0.30;99.90
26262;DHT22;13988;52.446;13.280;2024-03-08T04:50:44;0.30;99.90
26262;DHT22;13988;52.446;13.280;2024-03-08T04:53:10;0.40;99.90
26262;DHT22;13988;52.446;13.280;2024-03-08T04:55:37;0.30;99.90
26262;DHT22;13988;52.446;13.280;2024-03-08T04:58:03;0.30;99.90
26262;DHT22;13988;52.446;13.280;2024-03-08T05:00:31;0.40;99.90
26262;DHT22;13988;52.446;13.280;2024-03-08T05:02:58;0.30;99.90
26262;DHT22;13988;52.446;13.280;2024-03-08T05:05:23;0.40;99.90
26262;DHT22;13988;52.446;13.280;2024-03-08T05:07:50;0.40;99.90
26262;DHT22;13988;52.446;13.280;2024-03-08T05:10:15;0.30;99.90
26262;DHT22;13988;52.446;13.280;2024-03-08T05:12:43;0.40;99.90
26262;DHT22;13988;52.446;13.280;2024-03-08T05:15:09;0.30;99.90
26262;DHT22;13988;52.446;13.280;2024-03-08T05:17:35;0.30;99.90
26262;DHT22;13988;52.446;13.280;2024-03-08T05:20:00;0.30;99.90
26262;DHT22;13988;52.446;13.280;2024-03-08T05:22:26;0.30;99.90
26262;DHT22;13988;52.446;13.280;2024-03-08T05:24:52;0.30;99.90
26262;DHT22;13988;52.446;13.280;2024-03-08T05:27:17;0.30;99.90
26262;DHT22;13988;52.446;13.280;2024-03-08T05:29:43;0.20;99.90
26262;DHT22;13988;52.446;13.280;2024-03-08T05:32:08;0.10;99.90
26262;DHT22;13988;52.446;13.280;2024-03-08T05:34:35;0.20;99.90
26262;DHT22;13988;52.446;13.280;2024-03-08T05:37:01;0.20;99.90
26262;DHT22;13988;52.446;13.280;2024-03-08T05:39:27;0.20;99.90
26262;DHT22;13988;52.446;13.280;2024-03-08T05:41:52;0.30;99.90
26262;DHT22;13988;52.446;13.280;2024-03-08T05:44:20;0.30;99.90
26262;DHT22;13988;52.446;13.280;2024-03-08T05:46:46;0.20;99.90
26262;DHT22;13988;52.446;13.280;2024-03-08T05:49:12;0.20;99.90
26262;DHT22;13988;52.446;13.280;2024-03-08T05:51:39;0.30;99.90
26262;DHT22;13988;52.446;13.280;2024-03-08T05:54:07;0.30;99.90
26262;DHT22;13988;52.446;13.280;2024-03-08T05:56:35;0.30;99.90
26262;DHT22;13988;52.446;13.280;2024-03-08T05:59:01;0.30;99.90
26262;DHT22;13988;52.446;13.280;2024-03-08T06:01:27;0.30;99.90
26262;DHT22;13988;52.446;13.280;2024-03-08T06:03:53;0.30;99.90
26262;DHT22;13988;52.446;13.280;2024-03-08T06:06:21;0.30;99.90
26262;DHT22;13988;52.446;13.280;2024-03-08T06:08:48;0.40;99.90
26262;DHT22;13988;52.446;13.280;2024-03-08T06:11:18;0.40;99.90
26262;DHT22;13988;52.446;13.280;2024-03-08T06:13:44;0.40;99.90
26262;DHT22;13988;52.446;13.280;2024-03-08T06:16:10;0.40;99.90
26262;DHT22;13988;52.446;13.280;2024-03-08T06:18:37;0.40;99.90
26262;DHT22;13988;52.446;13.280;2024-03-08T06:21:03;0.40;99.90
26262;DHT22;13988;52.446;13.280;2024-03-08T06:23:34;0.50;99.90
26262;DHT22;13988;52.446;13.280;2024-03-08T06:26:01;0.50;99.90
26262;DHT22;13988;52.446;13.280;2024-03-08T06:28:26;0.50;99.90
26262;DHT22;13988;52.446;13.280;2024-03-08T06:30:52;0.50;99.90
26262;DHT22;13988;52.446;13.280;2024-03-08T06:33:18;0.50;99.90
26262;DHT22;13988;52.446;13.280;2024-03-08T06:35:44;0.60;99.90
26262;DHT22;13988;52.446;13.280;2024-03-08T06:38:09;0.60;99.90
26262;DHT22;13988;52.446;13.280;2024-03-08T06:40:37;0.70;99.90
26262;DHT22;13988;52.446;13.280;2024-03-08T06:43:02;0.80;99.90
26262;DHT22;13988;52.446;13.280;2024-03-08T06:45:31;0.80;99.90
26262;DHT22;13988;52.446;13.280;2024-03-08T06:47:57;0.90;99.90
26262;DHT22;13988;52.446;13.280;2024-03-08T06:50:23;1.00;99.90
26262;DHT22;13988;52.446;13.280;2024-03-08T06:52:48;1.20;99.90
26262;DHT22;13988;52.446;13.280;2024-03-08T06:55:22;1.30;99.90
26262;DHT22;13988;52.446;13.280;2024-03-08T06:57:47;1.20;99.90
26262;DHT22;13988;52.446;13.280;2024-03-08T07:00:13;1.30;99.90
26262;DHT22;13988;52.446;13.280;2024-03-08T07:02:46;1.30;99.90
26262;DHT22;13988;52.446;13.280;2024-03-08T07:05:14;1.40;99.90
26262;DHT22;13988;52.446;13.280;2024-03-08T07:07:41;1.60;99.90
26262;DHT22;13988;52.446;13.280;2024-03-08T07:10:07;1.60;99.90
26262;DHT22;13988;52.446;13.280;2024-03-08T07:12:37;1.60;99.90
26262;DHT22;13988;52.446;13.280;2024-03-08T07:15:04;1.70;99.90
26262;DHT22;13988;52.446;13.280;2024-03-08T07:17:30;1.70;99.90
26262;DHT22;13988;52.446;13.280;2024-03-08T07:19:56;1.90;99.90
26262;DHT22;13988;52.446;13.280;2024-03-08T07:22:24;1.80;99.90
26262;DHT22;13988;52.446;13.280;2024-03-08T07:24:50;1.80;99.90
26262;DHT22;13988;52.446;13.280;2024-03-08T07:27:40;2.00;99.90
26262;DHT22;13988;52.446;13.280;2024-03-08T07:30:06;2.10;99.90
26262;DHT22;13988;52.446;13.280;2024-03-08T07:32:35;2.10;99.90
26262;DHT22;13988;52.446;13.280;2024-03-08T07:35:01;2.10;99.90
26262;DHT22;13988;52.446;13.280;2024-03-08T07:37:27;2.30;99.90
26262;DHT22;13988;52.446;13.280;2024-03-08T07:39:53;2.30;99.90
26262;DHT22;13988;52.446;13.280;2024-03-08T07:42:18;2.30;99.90
26262;DHT22;13988;52.446;13.280;2024-03-08T07:44:44;2.30;99.90
26262;DHT22;13988;52.446;13.280;2024-03-08T07:47:11;2.60;99.90
26262;DHT22;13988;52.446;13.280;2024-03-08T07:49:37;2.70;99.90
26262;DHT22;13988;52.446;13.280;2024-03-08T07:52:04;2.60;99.90
26262;DHT22;13988;52.446;13.280;2024-03-08T07:54:33;2.80;99.90
26262;DHT22;13988;52.446;13.280;2024-03-08T07:57:00;2.90;99.90
26262;DHT22;13988;52.446;13.280;2024-03-08T07:59:27;3.00;99.90
26262;DHT22;13988;52.446;13.280;2024-03-08T08:01:53;3.00;99.90
26262;DHT22;13988;52.446;13.280;2024-03-08T08:04:18;3.10;99.90
26262;DHT22;13988;52.446;13.280;2024-03-08T08:06:50;3.10;99.90
26262;DHT22;13988;52.446;13.280;2024-03-08T08:09:16;3.20;99.90
26262;DHT22;13988;52.446;13.280;2024-03-08T08:11:54;3.20;99.90
26262;DHT22;13988;52.446;13.280;2024-03-08T08:14:19;3.40;99.90
26262;DHT22;13988;52.446;13.280;2024-03-08T08:16:46;3.40;99.90
26262;DHT22;13988;52.446;13.280;2024-03-08T08:19:14;3.40;99.90
26262;DHT22;13988;52.446;13.280;2024-03-08T08:21:40;3.50;99.90
26262;DHT22;13988;52.446;13.280;2024-03-08T08:24:06;3.40;99.90
26262;DHT22;13988;52.446;13.280;2024-03-08T08:26:31;3.60;99.90
26262;DHT22;13988;52.446;13.280;2024-03-08T08:28:59;3.80;99.90
26262;DHT22;13988;52.446;13.280;2024-03-08T08:31:25;4.00;99.90
26262;DHT22;13988;52.446;13.280;2024-03-08T08:33:51;3.90;99.90
26262;DHT22;13988;52.446;13.280;2024-03-08T08:36:26;3.90;99.90
26262;DHT22;13988;52.446;13.280;2024-03-08T08:38:52;4.00;99.90
26262;DHT22;13988;52.446;13.280;2024-03-08T08:41:20;4.10;99.90
26262;DHT22;13988;52.446;13.280;2024-03-08T08:43:47;4.20;99.90
26262;DHT22;13988;52.446;13.280;2024-03-08T08:46:17;4.30;99.90
26262;DHT22;13988;52.446;13.280;2024-03-08T08:48:42;4.50;99.90
26262;DHT22;13988;52.446;13.280;2024-03-08T08:51:11;4.40;99.90
26262;DHT22;13988;52.446;13.280;2024-03-08T08:53:42;4.40;99.90
26262;DHT22;13988;52.446;13.280;2024-03-08T08:56:12;4.50;99.90
26262;DHT22;13988;52.446;13.280;2024-03-08T08:58:44;4.50;99.90
26262;DHT22;13988;52.446;13.280;2024-03-08T09:01:10;4.70;99.90
26262;DHT22;13988;52.446;13.280;2024-03-08T09:03:37;4.80;99.90
26262;DHT22;13988;52.446;13.280;2024-03-08T09:06:07;4.80;99.90
26262;DHT22;13988;52.446;13.280;2024-03-08T09:08:38;4.90;99.90
26262;DHT22;13988;52.446;13.280;2024-03-08T09:11:04;5.00;99.90
26262;DHT22;13988;52.446;13.280;2024-03-08T09:13:30;5.00;99.90
26262;DHT22;13988;52.446;13.280;2024-03-08T09:15:56;5.20;99.90
26262;DHT22;13988;52.446;13.280;2024-03-08T09:18:22;5.20;99.90
26262;DHT22;13988;52.446;13.280;2024-03-08T09:20:49;5.40;99.90
26262;DHT22;13988;52.446;13.280;2024-03-08T09:23:15;5.40;99.90
26262;DHT22;13988;52.446;13.280;2024-03-08T09:25:42;5.20;99.90
26262;DHT22;13988;52.446;13.280;2024-03-08T09:28:09;5.20;99.90
26262;DHT22;13988;52.446;13.280;2024-03-08T09:30:34;5.30;99.90
26262;DHT22;13988;52.446;13.280;2024-03-08T09:33:01;5.30;99.90
26262;DHT22;13988;52.446;13.280;2024-03-08T09:35:27;5.40;99.90
26262;DHT22;13988;52.446;13.280;2024-03-08T09:37:53;5.50;99.90
26262;DHT22;13988;52.446;13.280;2024-03-08T09:40:19;5.60;99.90
26262;DHT22;13988;52.446;13.280;2024-03-08T09:42:47;5.60;99.90
26262;DHT22;13988;52.446;13.280;2024-03-08T09:45:13;5.50;99.90
26262;DHT22;13988;52.446;13.280;2024-03-08T09:47:42;5.60;99.90
26262;DHT22;13988;52.446;13.280;2024-03-08T09:50:09;5.70;99.90
26262;DHT22;13988;52.446;13.280;2024-03-08T09:52:39;5.80;99.90
26262;DHT22;13988;52.446;13.280;2024-03-08T09:55:10;5.90;99.90
26262;DHT22;13988;52.446;13.280;2024-03-08T09:57:40;5.90;99.90
26262;DHT22;13988;52.446;13.280;2024-03-08T10:00:06;5.90;99.90
26262;DHT22;13988;52.446;13.280;2024-03-08T10:02:50;5.90;99.90
26262;DHT22;13988;52.446;13.280;2024-03-08T10:05:17;5.90;99.90
26262;DHT22;13988;52.446;13.280;2024-03-08T10:07:43;5.90;99.90
26262;DHT22;13988;52.446;13.280;2024-03-08T10:10:09;6.00;99.90
26262;DHT22;13988;52.446;13.280;2024-03-08T10:12:38;6.10;99.90
26262;DHT22;13988;52.446;13.280;2024-03-08T10:15:07;6.30;99.90
26262;DHT22;13988;52.446;13.280;2024-03-08T10:17:34;6.20;99.90
26262;DHT22;13988;52.446;13.280;2024-03-08T10:20:00;6.20;99.90
26262;DHT22;13988;52.446;13.280;2024-03-08T10:22:26;6.30;99.90
26262;DHT22;13988;52.446;13.280;2024-03-08T10:24:52;6.10;99.30
26262;DHT22;13988;52.446;13.280;2024-03-08T10:27:18;6.20;99.90
26262;DHT22;13988;52.446;13.280;2024-03-08T10:29:50;6.30;99.90
26262;DHT22;13988;52.446;13.280;2024-03-08T10:32:17;6.40;99.90
26262;DHT22;13988;52.446;13.280;2024-03-08T10:34:42;6.40;99.90
26262;DHT22;13988;52.446;13.280;2024-03-08T10:37:15;6.40;99.90
26262;DHT22;13988;52.446;13.280;2024-03-08T10:39:48;6.60;98.20
26262;DHT22;13988;52.446;13.280;2024-03-08T10:42:18;6.60;96.30
26262;DHT22;13988;52.446;13.280;2024-03-08T10:45:02;6.50;96.00
26262;DHT22;13988;52.446;13.280;2024-03-08T10:47:33;6.60;95.00
26262;DHT22;13988;52.446;13.280;2024-03-08T10:50:20;6.60;94.70
26262;DHT22;13988;52.446;13.280;2024-03-08T10:52:52;6.70;98.40
26262;DHT22;13988;52.446;13.280;2024-03-08T10:55:19;6.80;96.10
26262;DHT22;13988;52.446;13.280;2024-03-08T10:57:46;6.80;90.70
26262;DHT22;13988;52.446;13.280;2024-03-08T11:00:15;7.00;86.80
26262;DHT22;13988;52.446;13.280;2024-03-08T11:02:52;7.10;81.00
26262;DHT22;13988;52.446;13.280;2024-03-08T11:08:01;6.90;72.90
26262;DHT22;13988;52.446;13.280;2024-03-08T11:10:28;7.00;69.00
26262;DHT22;13988;52.446;13.280;2024-03-08T11:12:53;7.00;66.30
26262;DHT22;13988;52.446;13.280;2024-03-08T11:15:19;7.10;67.10
26262;DHT22;13988;52.446;13.280;2024-03-08T11:17:47;7.20;70.20
26262;DHT22;13988;52.446;13.280;2024-03-08T11:20:18;7.30;60.10
26262;DHT22;13988;52.446;13.280;2024-03-08T11:22:52;7.30;69.40
26262;DHT22;13988;52.446;13.280;2024-03-08T11:30:42;7.70;57.20
26262;DHT22;13988;52.446;13.280;2024-03-08T11:33:12;7.70;54.00
26262;DHT22;13988;52.446;13.280;2024-03-08T11:35:38;7.60;48.50
26262;DHT22;13988;52.446;13.280;2024-03-08T11:38:04;7.60;48.80
26262;DHT22;13988;52.446;13.280;2024-03-08T11:40:30;8.20;53.50
26262;DHT22;13988;52.446;13.280;2024-03-08T11:42:58;8.00;40.90
26262;DHT22;13988;52.446;13.280;2024-03-08T11:45:24;8.30;53.70
26262;DHT22;13988;52.446;13.280;2024-03-08T11:47:50;8.30;34.30
26262;DHT22;13988;52.446;13.280;2024-03-08T11:50:16;8.20;44.70
26262;DHT22;13988;52.446;13.280;2024-03-08T11:52:44;8.30;38.80
26262;DHT22;13988;52.446;13.280;2024-03-08T11:55:11;8.40;38.40
26262;DHT22;13988;52.446;13.280;2024-03-08T11:57:39;8.40;34.20
26262;DHT22;13988;52.446;13.280;2024-03-08T12:00:05;8.40;34.30
26262;DHT22;13988;52.446;13.280;2024-03-08T12:02:34;9.30;43.90
26262;DHT22;13988;52.446;13.280;2024-03-08T12:05:04;10.60;29.50
26262;DHT22;13988;52.446;13.280;2024-03-08T12:07:31;11.40;27.00
26262;DHT22;13988;52.446;13.280;2024-03-08T12:10:21;10.70;18.60
26262;DHT22;13988;52.446;13.280;2024-03-08T12:12:51;11.80;19.20
26262;DHT22;13988;52.446;13.280;2024-03-08T12:15:18;11.00;14.20
26262;DHT22;13988;52.446;13.280;2024-03-08T12:17:45;10.40;11.20
26262;DHT22;13988;52.446;13.280;2024-03-08T12:20:19;10.80;14.80
26262;DHT22;13988;52.446;13.280;2024-03-08T12:22:47;10.60;11.50
26262;DHT22;13988;52.446;13.280;2024-03-08T12:25:14;9.80;10.50
26262;DHT22;13988;52.446;13.280;2024-03-08T12:27:41;10.70;17.70
26262;DHT22;13988;52.446;13.280;2024-03-08T12:30:26;10.60;10.30
26262;DHT22;13988;52.446;13.280;2024-03-08T12:32:54;10.70;8.00
26262;DHT22;13988;52.446;13.280;2024-03-08T12:35:23;10.70;12.90
26262;DHT22;13988;52.446;13.280;2024-03-08T12:37:54;11.40;13.30
26262;DHT22;13988;52.446;13.280;2024-03-08T12:40:30;11.40;6.40
26262;DHT22;13988;52.446;13.280;2024-03-08T12:43:00;11.70;3.00
26262;DHT22;13988;52.446;13.280;2024-03-08T12:45:27;10.90;5.40
26262;DHT22;13988;52.446;13.280;2024-03-08T12:47:54;10.70;8.30
26262;DHT22;13988;52.446;13.280;2024-03-08T12:50:20;11.30;7.10
26262;DHT22;13988;52.446;13.280;2024-03-08T12:52:46;11.80;2.00
26262;DHT22;13988;52.446;13.280;2024-03-08T12:55:12;11.70;2.10
26262;DHT22;13988;52.446;13.280;2024-03-08T12:57:38;11.70;1.00
26262;DHT22;13988;52.446;13.280;2024-03-08T13:00:04;11.90;1.00
26262;DHT22;13988;52.446;13.280;2024-03-08T13:02:31;12.00;1.00
26262;DHT22;13988;52.446;13.280;2024-03-08T13:04:58;12.40;3.30
26262;DHT22;13988;52.446;13.280;2024-03-08T13:07:24;13.10;5.00
26262;DHT22;13988;52.446;13.280;2024-03-08T13:09:54;12.40;1.00
26262;DHT22;13988;52.446;13.280;2024-03-08T13:12:23;11.20;1.00
26262;DHT22;13988;52.446;13.280;2024-03-08T13:14:49;11.50;1.00
26262;DHT22;13988;52.446;13.280;2024-03-08T13:17:15;10.70;1.60
26262;DHT22;13988;52.446;13.280;2024-03-08T13:19:41;11.40;2.00
26262;DHT22;13988;52.446;13.280;2024-03-08T13:22:10;10.90;2.50
26262;DHT22;13988;52.446;13.280;2024-03-08T13:24:39;11.00;4.10
26262;DHT22;13988;52.446;13.280;2024-03-08T13:27:09;10.50;3.40
26262;DHT22;13988;52.446;13.280;2024-03-08T13:29:50;10.80;5.10
26262;DHT22;13988;52.446;13.280;2024-03-08T13:32:17;11.40;3.60
26262;DHT22;13988;52.446;13.280;2024-03-08T13:34:45;11.70;3.20
26262;DHT22;13988;52.446;13.280;2024-03-08T13:37:12;11.90;1.40
26262;DHT22;13988;52.446;13.280;2024-03-08T13:39:41;11.90;5.60
26262;DHT22;13988;52.446;13.280;2024-03-08T13:42:12;11.80;2.60
26262;DHT22;13988;52.446;13.280;2024-03-08T13:44:48;11.50;4.30
26262;DHT22;13988;52.446;13.280;2024-03-08T13:47:15;11.30;5.90
26262;DHT22;13988;52.446;13.280;2024-03-08T13:49:41;11.00;9.80
26262;DHT22;13988;52.446;13.280;2024-03-08T13:52:09;12.20;5.20
26262;DHT22;13988;52.446;13.280;2024-03-08T13:54:35;11.60;4.10
26262;DHT22;13988;52.446;13.280;2024-03-08T13:57:01;11.30;8.40
26262;DHT22;13988;52.446;13.280;2024-03-08T13:59:32;10.60;6.10
26262;DHT22;13988;52.446;13.280;2024-03-08T14:01:59;10.60;5.60
26262;DHT22;13988;52.446;13.280;2024-03-08T14:04:26;10.80;7.90
26262;DHT22;13988;52.446;13.280;2024-03-08T14:06:52;11.30;7.50
26262;DHT22;13988;52.446;13.280;2024-03-08T14:09:23;11.30;7.90
26262;DHT22;13988;52.446;13.280;2024-03-08T14:11:50;10.30;7.80
26262;DHT22;13988;52.446;13.280;2024-03-08T14:14:20;10.00;9.40
26262;DHT22;13988;52.446;13.280;2024-03-08T14:16:47;9.90;9.00
26262;DHT22;13988;52.446;13.280;2024-03-08T14:19:13;9.70;9.50
26262;DHT22;13988;52.446;13.280;2024-03-08T14:21:40;9.70;11.60
26262;DHT22;13988;52.446;13.280;2024-03-08T14:24:07;9.80;12.40
26262;DHT22;13988;52.446;13.280;2024-03-08T14:26:33;9.70;12.00
26262;DHT22;13988;52.446;13.280;2024-03-08T14:28:59;9.60;10.10
26262;DHT22;13988;52.446;13.280;2024-03-08T14:31:25;9.50;11.20
26262;DHT22;13988;52.446;13.280;2024-03-08T14:33:53;9.30;11.10
26262;DHT22;13988;52.446;13.280;2024-03-08T14:36:20;9.40;14.10
26262;DHT22;13988;52.446;13.280;2024-03-08T14:38:46;9.60;12.90
26262;DHT22;13988;52.446;13.280;2024-03-08T14:41:15;9.70;16.10
26262;DHT22;13988;52.446;13.280;2024-03-08T14:43:43;9.80;12.70
26262;DHT22;13988;52.446;13.280;2024-03-08T14:46:18;9.50;9.90
26262;DHT22;13988;52.446;13.280;2024-03-08T14:48:55;9.60;11.50
26262;DHT22;13988;52.446;13.280;2024-03-08T14:51:24;10.40;11.80
26262;DHT22;13988;52.446;13.280;2024-03-08T14:53:54;10.20;8.40
26262;DHT22;13988;52.446;13.280;2024-03-08T14:56:21;10.30;11.20
26262;DHT22;13988;52.446;13.280;2024-03-08T14:58:47;10.50;11.40
26262;DHT22;13988;52.446;13.280;2024-03-08T15:01:15;10.60;12.40
26262;DHT22;13988;52.446;13.280;2024-03-08T15:03:41;10.10;9.30
26262;DHT22;13988;52.446;13.280;2024-03-08T15:06:08;9.60;10.80
26262;DHT22;13988;52.446;13.280;2024-03-08T15:08:38;9.60;9.30
26262;DHT22;13988;52.446;13.280;2024-03-08T15:11:04;9.60;10.70
26262;DHT22;13988;52.446;13.280;2024-03-08T15:13:31;9.80;12.30
26262;DHT22;13988;52.446;13.280;2024-03-08T15:16:11;9.70;10.90
26262;DHT22;13988;52.446;13.280;2024-03-08T15:18:42;9.60;11.50
26262;DHT22;13988;52.446;13.280;2024-03-08T15:21:12;9.70;14.50
26262;DHT22;13988;52.446;13.280;2024-03-08T15:23:38;9.40;11.40
26262;DHT22;13988;52.446;13.280;2024-03-08T15:26:09;9.50;11.40
26262;DHT22;13988;52.446;13.280;2024-03-08T15:28:34;9.80;13.10
26262;DHT22;13988;52.446;13.280;2024-03-08T15:31:05;9.70;12.40
26262;DHT22;13988;52.446;13.280;2024-03-08T15:33:35;9.60;13.70
26262;DHT22;13988;52.446;13.280;2024-03-08T15:36:09;9.50;12.10
26262;DHT22;13988;52.446;13.280;2024-03-08T15:38:36;9.40;12.00
26262;DHT22;13988;52.446;13.280;2024-03-08T15:41:03;9.20;13.10